createdAt,value
2023-05-23T00:01:10.189Z,100594.25
2023-05-23T00:03:37.495Z,100592.34
2023-05-23T00:06:06.875Z,100587.53
2023-05-23T00:08:33.530Z,100590.03
2023-05-23T00:11:00.197Z,100581.66
2023-05-23T00:13:26.934Z,100578.19
2023-05-23T00:15:53.527Z,100584.59
2023-05-23T00:18:20.161Z,100581.66
2023-05-23T00:20:47.094Z,100576.88
2023-05-23T00:23:19.406Z,100575.25
2023-05-23T00:25:48.482Z,100567.28
2023-05-23T00:28:15.963Z,100567.75
2023-05-23T00:30:43.065Z,100566.03
2023-05-23T00:33:09.796Z,100563.13
2023-05-23T00:35:36.291Z,100569.19
2023-05-23T00:38:03.432Z,100571.59
2023-05-23T00:40:29.938Z,100559.44
2023-05-23T00:42:56.796Z,100566.69
2023-05-23T00:45:23.496Z,100559.16
2023-05-23T00:47:51.460Z,100563.13
2023-05-23T00:50:18.100Z,100556.19
2023-05-23T00:52:45.929Z,100557.03
2023-05-23T00:55:13.371Z,100550.41
2023-05-23T00:57:40.797Z,100555.81
2023-05-23T01:00:12.435Z,100545.63
2023-05-23T01:02:47.197Z,100545.28
2023-05-23T01:09:03.014Z,100542.22
2023-05-23T01:11:38.670Z,100550.06
2023-05-23T01:14:11.711Z,100544.41
2023-05-23T01:16:51.976Z,100533.50
2023-05-23T01:19:28.139Z,100531.84
2023-05-23T01:21:59.974Z,100534.00
2023-05-23T01:24:55.502Z,100538.59
2023-05-23T01:27:41.594Z,100530.25
2023-05-23T01:30:10.469Z,100538.97
2023-05-23T01:32:38.360Z,100541.34
2023-05-23T01:35:06.100Z,100532.94
2023-05-23T01:37:32.586Z,100529.84
2023-05-23T01:39:59.123Z,100524.63
2023-05-23T01:42:28.035Z,100517.13
2023-05-23T01:44:54.765Z,100518.56
2023-05-23T01:47:22.192Z,100516.47
2023-05-23T01:49:49.302Z,100517.50
2023-05-23T01:52:16.577Z,100513.19
2023-05-23T01:54:44.422Z,100518.91
2023-05-23T01:57:11.926Z,100510.28
2023-05-23T01:59:39.065Z,100516.63
2023-05-23T02:02:06.008Z,100519.47
2023-05-23T02:04:32.646Z,100525.50
2023-05-23T02:06:59.231Z,100531.13
2023-05-23T02:09:25.716Z,100532.06
2023-05-23T02:11:52.596Z,100535.09
2023-05-23T02:14:19.619Z,100527.19
2023-05-23T02:16:46.489Z,100531.56
2023-05-23T02:19:13.056Z,100530.09
2023-05-23T02:21:39.686Z,100529.31
2023-05-23T02:24:06.444Z,100530.19
2023-05-23T02:26:32.969Z,100524.97
2023-05-23T02:28:59.549Z,100515.22
2023-05-23T02:31:26.831Z,100511.97
2023-05-23T02:33:53.712Z,100511.13
2023-05-23T02:36:20.818Z,100519.09
2023-05-23T02:38:47.484Z,100524.56
2023-05-23T02:41:14.041Z,100511.44
2023-05-23T02:43:40.658Z,100513.66
2023-05-23T02:46:07.182Z,100509.00
2023-05-23T02:48:33.712Z,100509.66
2023-05-23T02:51:00.485Z,100515.69
2023-05-23T02:53:27.061Z,100510.56
2023-05-23T02:55:53.527Z,100511.00
2023-05-23T02:58:20.765Z,100513.34
2023-05-23T03:00:47.309Z,100511.34
2023-05-23T03:03:13.832Z,100511.78
2023-05-23T03:05:40.619Z,100513.97
2023-05-23T03:08:07.364Z,100512.97
2023-05-23T03:10:33.963Z,100510.69
2023-05-23T03:13:00.482Z,100508.53
2023-05-23T03:15:26.932Z,100511.00
2023-05-23T03:17:53.503Z,100514.47
2023-05-23T03:20:20.066Z,100515.19
2023-05-23T03:22:46.601Z,100513.41
2023-05-23T03:25:15.437Z,100512.19
2023-05-23T03:27:41.910Z,100500.19
2023-05-23T03:30:09.143Z,100503.31
2023-05-23T03:32:36.028Z,100492.28
2023-05-23T03:35:02.702Z,100489.84
2023-05-23T03:37:29.135Z,100495.50
2023-05-23T03:39:55.647Z,100484.84
2023-05-23T03:42:22.178Z,100487.25
2023-05-23T03:44:48.874Z,100484.69
2023-05-23T03:47:15.319Z,100482.50
2023-05-23T03:49:41.825Z,100480.63
2023-05-23T03:52:08.282Z,100475.06
2023-05-23T03:54:34.833Z,100468.72
2023-05-23T03:57:01.717Z,100476.28
2023-05-23T03:59:28.427Z,100475.88
2023-05-23T04:01:55.299Z,100478.03
2023-05-23T04:04:21.917Z,100474.53
2023-05-23T04:06:48.526Z,100485.06
2023-05-23T04:09:15.045Z,100497.03
2023-05-23T04:11:41.527Z,100505.88
2023-05-23T04:14:08.066Z,100513.88
2023-05-23T04:16:36.297Z,100517.41
2023-05-23T04:19:05.922Z,100510.59
2023-05-23T04:21:33.029Z,100498.03
2023-05-23T04:23:59.602Z,100497.03
2023-05-23T04:26:26.120Z,100496.53
2023-05-23T04:28:54.267Z,100486.56
2023-05-23T04:31:24.409Z,100490.19
2023-05-23T04:33:51.881Z,100488.28
2023-05-23T04:36:18.505Z,100492.50
2023-05-23T04:38:45.117Z,100486.47
2023-05-23T04:41:11.908Z,100491.09
2023-05-23T04:43:42.473Z,100487.75
2023-05-23T04:46:10.121Z,100495.63
2023-05-23T04:48:38.611Z,100491.72
2023-05-23T04:51:08.569Z,100494.81
2023-05-23T04:53:36.874Z,100489.88
2023-05-23T04:56:03.624Z,100494.97
2023-05-23T04:58:31.802Z,100499.09
2023-05-23T05:00:58.807Z,100491.72
2023-05-23T05:03:26.377Z,100490.31
2023-05-23T05:05:53.681Z,100488.88
2023-05-23T05:08:20.270Z,100490.88
2023-05-23T05:10:46.798Z,100488.59
2023-05-23T05:13:13.324Z,100492.31
2023-05-23T05:15:39.925Z,100486.13
2023-05-23T05:18:06.536Z,100480.31
2023-05-23T05:20:33.233Z,100488.22
2023-05-23T05:23:02.870Z,100497.53
2023-05-23T05:25:32.191Z,100494.59
2023-05-23T05:28:03.090Z,100494.94
2023-05-23T05:30:30.588Z,100499.41
2023-05-23T05:32:58.269Z,100501.09
2023-05-23T05:35:24.856Z,100507.41
2023-05-23T05:37:51.458Z,100512.03
2023-05-23T05:40:18.044Z,100512.28
2023-05-23T05:42:44.612Z,100511.91
2023-05-23T05:45:11.542Z,100506.50
2023-05-23T05:47:38.887Z,100507.59
2023-05-23T05:50:07.833Z,100503.44
2023-05-23T05:52:38.422Z,100491.75
2023-05-23T05:55:11.472Z,100497.13
2023-05-23T05:57:38.892Z,100486.53
2023-05-23T06:00:18.974Z,100495.91
2023-05-23T06:02:51.765Z,100491.06
2023-05-23T06:05:18.697Z,100486.56
2023-05-23T06:07:45.366Z,100484.50
2023-05-23T06:10:14.980Z,100487.19
2023-05-23T06:12:41.650Z,100486.63
2023-05-23T06:15:09.616Z,100487.41
2023-05-23T06:17:36.132Z,100480.53
2023-05-23T06:20:04.732Z,100480.53
2023-05-23T06:22:31.453Z,100479.13
2023-05-23T06:24:57.958Z,100481.41
2023-05-23T06:27:24.580Z,100492.09
2023-05-23T06:29:51.061Z,100492.53
2023-05-23T06:32:17.575Z,100480.97
2023-05-23T06:34:44.216Z,100475.19
2023-05-23T06:37:10.731Z,100484.59
2023-05-23T06:39:37.314Z,100488.16
2023-05-23T06:42:04.432Z,100492.94
2023-05-23T06:44:30.893Z,100489.19
2023-05-23T06:46:58.858Z,100483.38
2023-05-23T06:49:25.860Z,100479.16
2023-05-23T06:51:52.944Z,100485.84
2023-05-23T06:54:19.980Z,100487.47
2023-05-23T06:56:46.649Z,100484.09
2023-05-23T06:59:13.265Z,100488.66
2023-05-23T07:01:40.071Z,100487.84
2023-05-23T07:04:06.778Z,100485.13
2023-05-23T07:06:33.358Z,100485.03
2023-05-23T07:08:59.866Z,100494.00
2023-05-23T07:11:26.561Z,100497.81
2023-05-23T07:13:53.061Z,100491.75
2023-05-23T07:16:20.415Z,100494.44
2023-05-23T07:18:46.977Z,100489.06
2023-05-23T07:21:13.528Z,100499.25
2023-05-23T07:23:40.909Z,100500.25
2023-05-23T07:26:09.749Z,100498.78
2023-05-23T07:28:37.608Z,100495.91
2023-05-23T07:31:04.606Z,100487.50
2023-05-23T07:33:31.186Z,100484.75
2023-05-23T07:35:57.703Z,100484.25
2023-05-23T07:38:24.273Z,100482.19
2023-05-23T07:41:02.638Z,100490.16
2023-05-23T07:43:33.747Z,100493.75
2023-05-23T07:46:00.427Z,100485.38
2023-05-23T07:48:27.278Z,100495.31
2023-05-23T07:50:55.552Z,100494.00
2023-05-23T07:53:22.623Z,100500.06
2023-05-23T07:55:49.254Z,100501.81
2023-05-23T07:58:16.260Z,100500.53
2023-05-23T08:00:44.255Z,100500.25
2023-05-23T08:03:11.913Z,100497.38
2023-05-23T08:05:38.543Z,100502.91
2023-05-23T08:08:05.247Z,100503.31
2023-05-23T08:10:31.822Z,100502.56
2023-05-23T08:13:00.958Z,100499.75
2023-05-23T08:15:28.847Z,100499.78
2023-05-23T08:17:57.240Z,100502.59
2023-05-23T08:20:30.805Z,100505.84
2023-05-23T08:23:02.097Z,100505.34
2023-05-23T08:25:30.485Z,100505.75
2023-05-23T08:27:58.573Z,100507.28
2023-05-23T08:30:26.142Z,100512.53
2023-05-23T08:32:53.655Z,100517.59
2023-05-23T08:35:20.222Z,100519.88
2023-05-23T08:37:47.054Z,100515.72
2023-05-23T08:40:21.737Z,100514.94
2023-05-23T08:42:51.630Z,100517.00
2023-05-23T08:45:18.807Z,100525.38
2023-05-23T08:47:46.963Z,100523.63
2023-05-23T08:50:16.160Z,100530.84
2023-05-23T08:52:57.118Z,100530.84
2023-05-23T08:55:26.730Z,100540.53
2023-05-23T08:57:54.320Z,100535.41
2023-05-23T09:00:22.655Z,100542.75
2023-05-23T09:02:49.524Z,100535.59
2023-05-23T09:05:16.157Z,100549.00
2023-05-23T09:07:47.699Z,100551.50
2023-05-23T09:10:16.974Z,100548.75
2023-05-23T09:12:43.896Z,100547.44
2023-05-23T09:15:11.379Z,100550.00
2023-05-23T09:17:38.413Z,100557.00
2023-05-23T09:20:14.129Z,100559.44
2023-05-23T09:22:41.048Z,100561.19
2023-05-23T09:25:08.240Z,100565.84
2023-05-23T09:27:35.135Z,100571.81
2023-05-23T09:30:09.249Z,100561.84
2023-05-23T09:32:36.233Z,100560.56
2023-05-23T09:35:07.205Z,100568.31
2023-05-23T09:37:43.272Z,100563.44
2023-05-23T09:40:11.760Z,100557.34
2023-05-23T09:42:45.815Z,100567.97
2023-05-23T09:45:16.755Z,100570.28
2023-05-23T09:47:51.688Z,100564.16
2023-05-23T09:50:18.977Z,100565.88
2023-05-23T09:52:46.515Z,100570.38
2023-05-23T09:55:13.086Z,100579.13
2023-05-23T09:57:42.484Z,100568.50
2023-05-23T10:00:11.417Z,100565.94
2023-05-23T10:03:08.258Z,100563.31
2023-05-23T10:05:40.986Z,100561.03
2023-05-23T10:08:16.140Z,100562.00
2023-05-23T10:11:15.083Z,100559.19
2023-05-23T10:13:44.491Z,100561.28
2023-05-23T10:16:20.236Z,100555.97
2023-05-23T10:18:53.089Z,100564.53
2023-05-23T10:21:24.937Z,100572.72
2023-05-23T10:23:51.900Z,100568.06
2023-05-23T10:26:18.504Z,100572.19
2023-05-23T10:28:49.721Z,100577.59
2023-05-23T10:31:17.569Z,100585.91
2023-05-23T10:33:53.328Z,100580.56
2023-05-23T10:36:27.373Z,100588.50
2023-05-23T10:39:02.723Z,100585.56
2023-05-23T10:41:39.011Z,100588.78
2023-05-23T10:44:12.708Z,100583.56
2023-05-23T10:46:58.723Z,100590.47
2023-05-23T10:49:45.371Z,100584.47
2023-05-23T10:52:14.008Z,100590.31
2023-05-23T10:54:50.874Z,100597.38
2023-05-23T10:57:20.031Z,100593.88
2023-05-23T10:59:47.375Z,100595.63
2023-05-23T11:02:16.129Z,100602.59
2023-05-23T11:04:43.047Z,100592.41
2023-05-23T11:07:31.930Z,100596.75
2023-05-23T11:10:05.321Z,100597.75
2023-05-23T11:12:42.719Z,100595.50
2023-05-23T11:15:18.203Z,100600.56
2023-05-23T11:17:52.173Z,100613.47
2023-05-23T11:20:23.412Z,100608.03
2023-05-23T11:23:02.915Z,100609.03
2023-05-23T11:25:47.888Z,100610.28
2023-05-23T11:28:14.850Z,100608.22
2023-05-23T11:30:42.079Z,100613.69
2023-05-23T11:33:13.569Z,100613.94
2023-05-23T11:35:45.609Z,100613.28
2023-05-23T11:38:14.652Z,100608.31
2023-05-23T11:40:43.213Z,100609.00
2023-05-23T11:43:12.183Z,100612.78
2023-05-23T11:45:39.869Z,100613.16
2023-05-23T11:48:14.695Z,100614.78
2023-05-23T11:50:46.291Z,100608.22
2023-05-23T11:53:14.213Z,100611.88
2023-05-23T11:55:41.853Z,100618.53
2023-05-23T11:58:10.809Z,100622.09
2023-05-23T12:00:43.921Z,100618.66
2023-05-23T12:03:11.820Z,100622.22
2023-05-23T12:05:38.563Z,100627.25
2023-05-23T12:08:05.341Z,100627.63
2023-05-23T12:10:31.989Z,100620.72
2023-05-23T12:12:59.289Z,100619.56
2023-05-23T12:15:28.163Z,100624.53
2023-05-23T12:17:56.407Z,100622.44
2023-05-23T12:20:26.787Z,100629.38
2023-05-23T12:22:54.504Z,100619.97
2023-05-23T12:25:23.240Z,100628.72
2023-05-23T12:27:49.886Z,100624.34
2023-05-23T12:30:17.212Z,100636.09
2023-05-23T12:32:45.732Z,100625.91
2023-05-23T12:35:14.347Z,100636.13
2023-05-23T12:37:43.138Z,100633.41
2023-05-23T12:40:14.273Z,100639.66
2023-05-23T12:42:59.105Z,100634.25
2023-05-23T12:45:36.865Z,100639.28
2023-05-23T12:48:04.688Z,100632.41
2023-05-23T12:50:31.332Z,100638.00
2023-05-23T12:52:58.677Z,100638.44
2023-05-23T12:55:25.353Z,100634.38
2023-05-23T12:57:51.895Z,100643.97
2023-05-23T13:00:19.626Z,100643.09
2023-05-23T13:02:46.572Z,100644.09
2023-05-23T13:05:13.213Z,100639.94
2023-05-23T13:07:39.727Z,100650.59
2023-05-23T13:10:06.973Z,100650.81
2023-05-23T13:12:34.333Z,100646.44
2023-05-23T13:15:01.091Z,100651.41
2023-05-23T13:17:28.063Z,100650.34
2023-05-23T13:19:54.670Z,100644.91
2023-05-23T13:22:21.363Z,100645.19
2023-05-23T13:24:47.982Z,100654.81
2023-05-23T13:27:14.453Z,100656.28
2023-05-23T13:29:41.038Z,100657.53
2023-05-23T13:32:08.290Z,100660.88
2023-05-23T13:34:37.457Z,100666.53
2023-05-23T13:37:04.869Z,100661.00
2023-05-23T13:39:31.485Z,100661.84
2023-05-23T13:41:58.233Z,100672.00
2023-05-23T13:44:24.969Z,100675.50
2023-05-23T13:46:51.593Z,100671.72
2023-05-23T13:49:18.991Z,100683.81
2023-05-23T13:51:45.507Z,100674.47
2023-05-23T13:54:13.360Z,100688.22
2023-05-23T13:56:40.421Z,100687.91
2023-05-23T13:59:07.072Z,100690.78
2023-05-23T14:01:33.631Z,100685.63
2023-05-23T14:04:00.357Z,100686.41
2023-05-23T14:06:27.106Z,100682.38
2023-05-23T14:08:53.622Z,100685.91
2023-05-23T14:11:20.116Z,100690.03
2023-05-23T14:13:46.714Z,100694.34
2023-05-23T14:16:13.263Z,100695.19
2023-05-23T14:18:39.775Z,100691.63
2023-05-23T14:21:06.316Z,100693.31
2023-05-23T14:23:32.930Z,100699.75
2023-05-23T14:25:59.479Z,100692.16
2023-05-23T14:28:26.220Z,100696.31
2023-05-23T14:30:53.050Z,100698.50
2023-05-23T14:33:19.596Z,100697.75
2023-05-23T14:35:46.398Z,100701.25
2023-05-23T14:38:13.100Z,100707.31
2023-05-23T14:40:39.566Z,100710.41
2023-05-23T14:43:06.242Z,100708.66
2023-05-23T14:45:32.930Z,100705.94
2023-05-23T14:47:59.627Z,100703.38
2023-05-23T14:50:26.630Z,100717.56
2023-05-23T14:52:53.760Z,100715.00
2023-05-23T14:55:20.637Z,100713.25
2023-05-23T14:57:47.202Z,100719.56
2023-05-23T15:00:14.263Z,100717.78
2023-05-23T15:02:40.878Z,100730.75
2023-05-23T15:05:07.757Z,100730.25
2023-05-23T15:07:34.288Z,100747.63
2023-05-23T15:10:01.994Z,100752.72
2023-05-23T15:12:28.798Z,100755.22
2023-05-23T15:15:03.064Z,100763.03
2023-05-23T15:17:31.183Z,100762.72
2023-05-23T15:19:57.886Z,100770.06
2023-05-23T15:22:37.885Z,100766.91
2023-05-23T15:25:06.761Z,100771.28
2023-05-23T15:27:33.259Z,100778.09
2023-05-23T15:29:59.868Z,100779.88
2023-05-23T15:32:26.596Z,100776.97
2023-05-23T15:34:53.220Z,100787.13
2023-05-23T15:37:20.000Z,100795.31
2023-05-23T15:39:47.029Z,100789.28
2023-05-23T15:42:13.780Z,100791.41
2023-05-23T15:44:40.461Z,100789.38
2023-05-23T15:47:06.976Z,100792.34
2023-05-23T15:49:33.460Z,100799.06
2023-05-23T15:51:59.916Z,100796.75
2023-05-23T15:54:26.431Z,100795.66
2023-05-23T15:56:52.974Z,100794.63
2023-05-23T15:59:19.504Z,100799.94
2023-05-23T16:01:46.035Z,100802.38
2023-05-23T16:04:12.629Z,100805.72
2023-05-23T16:06:39.516Z,100804.31
2023-05-23T16:09:06.035Z,100801.22
2023-05-23T16:11:32.654Z,100814.59
2023-05-23T16:13:59.213Z,100816.50
2023-05-23T16:16:25.871Z,100822.00
2023-05-23T16:18:52.426Z,100815.94
2023-05-23T16:21:20.685Z,100821.25
2023-05-23T16:23:48.561Z,100821.34
2023-05-23T16:26:16.427Z,100822.47
2023-05-23T16:28:43.684Z,100824.03
2023-05-23T16:31:14.859Z,100821.72
2023-05-23T16:33:41.427Z,100819.66
2023-05-23T16:36:08.202Z,100827.13
2023-05-23T16:38:34.806Z,100827.97
2023-05-23T16:41:01.461Z,100838.78
2023-05-23T16:43:27.906Z,100833.75
2023-05-23T16:45:54.413Z,100837.31
2023-05-23T16:48:21.617Z,100844.19
2023-05-23T16:50:48.198Z,100845.78
2023-05-23T16:53:14.815Z,100861.34
2023-05-23T16:55:41.636Z,100851.94
2023-05-23T16:58:08.359Z,100858.91
2023-05-23T17:00:34.812Z,100857.06
2023-05-23T17:03:01.595Z,100858.81
2023-05-23T17:05:28.231Z,100867.63
2023-05-23T17:07:54.757Z,100868.81
2023-05-23T17:10:21.300Z,100860.16
2023-05-23T17:12:47.966Z,100861.50
2023-05-23T17:15:14.494Z,100864.75
2023-05-23T17:17:41.238Z,100883.25
2023-05-23T17:20:09.675Z,100897.09
2023-05-23T17:22:37.712Z,100898.78
2023-05-23T17:25:06.402Z,100899.50
2023-05-23T17:27:33.579Z,100917.81
2023-05-23T17:30:00.195Z,100909.91
2023-05-23T17:32:27.093Z,100924.72
2023-05-23T17:34:53.885Z,100914.13
2023-05-23T17:37:20.350Z,100923.53
2023-05-23T17:39:48.089Z,100928.38
2023-05-23T17:42:14.579Z,100920.00
2023-05-23T17:44:41.055Z,100926.72
2023-05-23T17:47:07.732Z,100928.03
2023-05-23T17:49:34.312Z,100933.06
2023-05-23T17:52:04.662Z,100930.91
2023-05-23T17:54:31.629Z,100936.09
2023-05-23T17:56:58.110Z,100929.56
2023-05-23T17:59:24.990Z,100934.44
2023-05-23T18:01:51.662Z,100936.47
2023-05-23T18:04:18.271Z,100931.25
2023-05-23T18:06:44.797Z,100930.75
2023-05-23T18:09:11.677Z,100938.97
2023-05-23T18:11:38.350Z,100923.34
2023-05-23T18:14:04.886Z,100937.78
2023-05-23T18:16:32.297Z,100936.41
2023-05-23T18:18:59.638Z,100939.94
2023-05-23T18:21:26.998Z,100951.72
2023-05-23T18:23:53.524Z,100948.97
2023-05-23T18:26:20.156Z,100950.38
2023-05-23T18:28:46.659Z,100955.88
2023-05-23T18:31:13.201Z,100954.84
2023-05-23T18:33:39.740Z,100959.06
2023-05-23T18:36:07.069Z,100954.19
2023-05-23T18:38:34.185Z,100962.25
2023-05-23T18:41:00.821Z,100963.41
2023-05-23T18:43:27.426Z,100965.63
2023-05-23T18:45:54.026Z,100979.56
2023-05-23T18:48:20.732Z,100980.22
2023-05-23T18:50:47.215Z,100996.19
2023-05-23T18:53:13.805Z,100996.03
2023-05-23T18:55:40.354Z,100991.84
2023-05-23T18:58:07.162Z,100997.88
2023-05-23T19:00:33.808Z,101010.66
2023-05-23T19:03:00.436Z,101008.09
2023-05-23T19:05:27.114Z,101013.16
2023-05-23T19:07:53.701Z,101013.13
2023-05-23T19:10:20.177Z,101014.50
2023-05-23T19:12:46.678Z,101021.72
2023-05-23T19:15:13.187Z,101020.84
2023-05-23T19:17:39.826Z,101025.78
2023-05-23T19:20:07.807Z,101030.66
2023-05-23T19:22:49.686Z,101022.59
2023-05-23T19:25:17.269Z,101032.19
2023-05-23T19:27:43.755Z,101035.72
2023-05-23T19:30:11.515Z,101028.47
2023-05-23T19:32:38.153Z,101044.28
2023-05-23T19:35:05.446Z,101043.78
2023-05-23T19:37:32.067Z,101045.44
2023-05-23T19:39:58.922Z,101048.97
2023-05-23T19:42:25.574Z,101046.13
2023-05-23T19:44:52.277Z,101055.16
2023-05-23T19:47:18.827Z,101057.72
2023-05-23T19:49:45.708Z,101058.88
2023-05-23T19:52:12.214Z,101060.88
2023-05-23T19:54:38.886Z,101065.84
2023-05-23T19:57:05.920Z,101072.22
2023-05-23T19:59:32.654Z,101064.34
2023-05-23T20:01:59.425Z,101069.69
2023-05-23T20:04:26.090Z,101076.91
2023-05-23T20:06:52.671Z,101076.69
2023-05-23T20:09:19.178Z,101081.66
2023-05-23T20:11:46.471Z,101088.75
2023-05-23T20:14:13.010Z,101088.38
2023-05-23T20:16:39.679Z,101092.38
2023-05-23T20:19:07.211Z,101094.34
2023-05-23T20:21:33.866Z,101098.75
2023-05-23T20:24:00.525Z,101108.75
2023-05-23T20:26:27.643Z,101116.41
2023-05-23T20:28:54.269Z,101121.19
2023-05-23T20:31:20.931Z,101118.75
2023-05-23T20:33:47.514Z,101124.47
2023-05-23T20:36:14.020Z,101130.16
2023-05-23T20:38:41.112Z,101135.47
2023-05-23T20:41:07.732Z,101129.69
2023-05-23T20:43:37.206Z,101131.72
2023-05-23T20:46:09.948Z,101133.25
2023-05-23T20:48:36.452Z,101141.22
2023-05-23T20:51:05.623Z,101142.69
2023-05-23T20:53:32.564Z,101136.00
2023-05-23T20:55:59.351Z,101150.50
2023-05-23T20:58:25.991Z,101144.97
2023-05-23T21:00:52.914Z,101144.31
2023-05-23T21:03:19.527Z,101144.59
2023-05-23T21:05:46.006Z,101151.25
2023-05-23T21:08:12.560Z,101140.13
2023-05-23T21:10:39.208Z,101146.94
2023-05-23T21:13:05.831Z,101150.63
2023-05-23T21:15:32.340Z,101147.81
2023-05-23T21:17:58.894Z,101154.44
2023-05-23T21:20:25.795Z,101159.44
2023-05-23T21:22:52.321Z,101159.44
2023-05-23T21:25:18.929Z,101160.13
2023-05-23T21:27:45.388Z,101154.41
2023-05-23T21:30:12.576Z,101151.63
2023-05-23T21:32:39.084Z,101158.69
2023-05-23T21:35:06.372Z,101165.22
2023-05-23T21:37:32.936Z,101173.53
2023-05-23T21:39:59.415Z,101178.19
2023-05-23T21:42:25.957Z,101174.22
2023-05-23T21:44:52.476Z,101184.13
2023-05-23T21:47:21.162Z,101170.34
2023-05-23T21:49:47.817Z,101181.63
2023-05-23T21:52:14.616Z,101173.69
2023-05-23T21:54:41.223Z,101177.69
2023-05-23T21:57:07.672Z,101179.53
2023-05-23T21:59:34.172Z,101179.00
2023-05-23T22:02:00.961Z,101172.03
2023-05-23T22:04:27.634Z,101178.47
2023-05-23T22:06:54.335Z,101180.78
2023-05-23T22:09:20.904Z,101175.84
2023-05-23T22:11:47.518Z,101182.50
2023-05-23T22:14:14.038Z,101187.34
2023-05-23T22:16:40.825Z,101188.22
2023-05-23T22:19:09.775Z,101186.25
2023-05-23T22:21:36.901Z,101186.78
2023-05-23T22:24:03.826Z,101186.53
2023-05-23T22:26:30.695Z,101197.97
2023-05-23T22:28:57.294Z,101195.16
2023-05-23T22:31:24.250Z,101195.44
2023-05-23T22:33:51.245Z,101197.69
2023-05-23T22:36:18.133Z,101196.19
2023-05-23T22:38:44.884Z,101195.31
2023-05-23T22:41:11.643Z,101195.31
2023-05-23T22:43:38.482Z,101197.28
2023-05-23T22:46:05.040Z,101198.41
2023-05-23T22:48:34.435Z,101192.38
2023-05-23T22:51:02.160Z,101196.91
2023-05-23T22:53:29.425Z,101201.38
2023-05-23T22:55:56.125Z,101195.34
2023-05-23T22:58:22.713Z,101190.53
2023-05-23T23:00:49.269Z,101198.72
2023-05-23T23:03:16.106Z,101199.28
2023-05-23T23:05:42.999Z,101199.97
2023-05-23T23:08:09.622Z,101204.50
2023-05-23T23:10:36.132Z,101201.53
2023-05-23T23:13:02.692Z,101200.28
2023-05-23T23:15:30.184Z,101200.00
2023-05-23T23:17:57.187Z,101205.34
2023-05-23T23:20:23.887Z,101199.28
2023-05-23T23:22:50.783Z,101190.53
2023-05-23T23:25:19.029Z,101200.69
2023-05-23T23:27:45.640Z,101201.56
2023-05-23T23:30:12.537Z,101201.06
2023-05-23T23:32:39.038Z,101197.84
2023-05-23T23:35:06.130Z,101197.00
2023-05-23T23:37:32.656Z,101201.50
2023-05-23T23:39:59.116Z,101205.44
2023-05-23T23:42:25.874Z,101201.78
2023-05-23T23:44:52.438Z,101204.31
2023-05-23T23:47:19.039Z,101200.09
2023-05-23T23:49:45.549Z,101201.91
2023-05-23T23:52:12.042Z,101199.09
2023-05-23T23:54:38.520Z,101195.84
2023-05-23T23:57:06.597Z,101196.69
2023-05-23T23:59:33.148Z,101199.38
